Time;durP1;ratioP1;P1;durP2;ratioP2;P2;SDS_P1;SDS_P2;PMS_P1;PMS_P2;Temp;Humidity;BMP_temperature;BMP_pressure;BME280_temperature;BME280_humidity;BME280_pressure;Samples;Min_cycle;Max_cycle;Signal;HPM_P1;HPM_P2
2022/09/19 00:00:52;;;;;;;;;0.00;0.00;;;;;17.04;46.74;101679.91;4934039;28;45312;-64
2022/09/19 00:03:17;;;;;;;;;4.33;2.33;;;;;17.05;47.13;101680.78;4917591;28;45325;-65
2022/09/19 00:05:43;;;;;;;;;3.00;3.00;;;;;16.86;47.31;101659.78;4934827;28;45505;-65
2022/09/19 00:08:09;;;;;;;;;2.00;2.00;;;;;17.01;47.38;101671.97;4933395;28;45463;-65
2022/09/19 00:10:42;;;;;;;;;2.33;2.00;;;;;16.98;47.23;101677.31;4932209;28;45647;-65
2022/09/19 00:13:08;;;;;;;;;2.00;2.00;;;;;17.01;47.17;101669.31;4932567;28;45560;-65
2022/09/19 00:15:46;;;;;;;;;1.00;1.00;;;;;17.01;46.87;101674.63;4933351;28;47804;-66
2022/09/19 00:18:12;;;;;;;;;1.00;1.00;;;;;16.97;46.93;101662.31;4933424;28;45439;-66
2022/09/19 00:20:43;;;;;;;;;2.00;2.00;;;;;17.04;47.23;101668.44;4958153;28;45289;-65
2022/09/19 00:26:01;;;;;;;;;1.33;1.00;;;;;17.09;47.09;101667.50;4932336;28;45717;-68
2022/09/19 00:28:27;;;;;;;;;1.33;1.33;;;;;17.10;46.65;101671.88;4943966;28;45743;-66
2022/09/19 00:30:54;;;;;;;;;2.33;2.00;;;;;17.12;46.68;101678.03;4942235;28;45488;-67
2022/09/19 00:33:21;;;;;;;;;1.00;1.00;;;;;17.14;46.73;101683.34;4947644;28;45570;-65
2022/09/19 00:35:54;;;;;;;;;1.00;1.00;;;;;17.03;46.83;101653.44;4991115;28;45558;-66
2022/09/19 00:38:30;;;;;;;;;3.00;2.00;;;;;17.15;46.79;101683.28;5003829;28;45665;-65
2022/09/19 00:40:57;;;;;;;;;2.50;2.00;;;;;17.14;47.00;101670.97;5022480;28;45838;-64
2022/09/19 00:43:25;;;;;;;;;4.00;2.67;;;;;17.16;46.70;101681.56;5012765;28;45516;-65
2022/09/19 00:45:51;;;;;;;;;1.00;1.00;;;;;17.19;46.98;101691.22;4979770;28;46251;-66
2022/09/19 00:48:21;;;;;;;;;3.00;1.00;;;;;17.16;46.83;101684.19;4916169;28;45496;-66
2022/09/19 00:50:53;;;;;;;;;1.67;1.00;;;;;17.19;46.84;101691.22;4938031;28;45395;-64
2022/09/19 00:53:24;;;;;;;;;3.33;2.00;;;;;17.19;46.91;101686.81;4938133;28;45402;-64
2022/09/19 00:55:55;;;;;;;;;2.00;2.00;;;;;17.13;46.91;101681.56;4928090;28;46631;-65
2022/09/19 00:58:34;;;;;;;;;3.00;2.67;;;;;17.15;46.98;101680.66;4928064;28;45366;-65
2022/09/19 01:01:01;;;;;;;;;1.00;1.00;;;;;17.17;46.97;101686.81;4925637;28;45454;-66
2022/09/19 01:03:28;;;;;;;;;2.00;2.00;;;;;17.13;46.90;101681.56;4936239;28;45351;-67
2022/09/19 01:06:03;;;;;;;;;2.00;2.00;;;;;17.15;46.97;101696.53;4933195;28;45541;-66
2022/09/19 01:09:10;;;;;;;;;1.00;1.00;;;;;17.12;47.05;101680.69;4933696;28;45576;-66
2022/09/19 01:12:03;;;;;;;;;2.00;2.00;;;;;17.11;47.10;101688.66;4925277;28;45522;-65
2022/09/19 01:14:58;;;;;;;;;3.00;1.00;;;;;17.12;47.12;101685.97;4921816;28;45402;-66
2022/09/19 01:17:50;;;;;;;;;2.33;2.33;;;;;17.12;47.01;101682.47;4932950;28;45395;-65
2022/09/19 01:20:37;;;;;;;;;1.00;1.00;;;;;17.11;47.27;101684.25;4915043;28;45337;-66
2022/09/19 01:23:12;;;;;;;;;1.00;1.00;;;;;17.07;47.27;101686.94;4932926;28;45404;-64
2022/09/19 01:26:22;;;;;;;;;1.67;1.67;;;;;17.00;47.53;101695.81;4935612;28;45466;-67
2022/09/19 01:28:53;;;;;;;;;2.00;2.00;;;;;17.01;47.61;101689.63;4950971;28;46257;-66
2022/09/19 01:31:27;;;;;;;;;1.33;1.00;;;;;17.00;47.44;101679.94;4931096;28;45640;-66
2022/09/19 01:34:05;;;;;;;;;2.00;2.00;;;;;16.99;47.67;101687.00;4933323;28;45529;-66
2022/09/19 01:36:39;;;;;;;;;2.00;2.00;;;;;16.87;48.01;101685.34;4933531;28;45404;-65
2022/09/19 01:39:08;;;;;;;;;2.00;2.00;;;;;16.88;48.06;101689.75;4932936;28;46936;-68
2022/09/19 01:41:35;;;;;;;;;1.33;1.33;;;;;16.89;48.40;101686.19;4933211;28;45502;-66
2022/09/19 01:44:05;;;;;;;;;2.00;2.00;;;;;16.86;48.12;101686.22;4915737;28;46168;-66
2022/09/19 01:46:50;;;;;;;;;2.00;2.00;;;;;16.75;48.14;101678.38;4933090;28;45498;-64
2022/09/19 01:49:40;;;;;;;;;2.00;2.00;;;;;16.68;48.17;101676.66;4954234;28;47731;-65
2022/09/19 01:52:38;;;;;;;;;2.00;1.00;;;;;16.81;48.18;101698.63;4924431;28;45384;-69
2022/09/19 01:55:23;;;;;;;;;3.00;1.00;;;;;16.81;48.34;101695.97;4932535;28;45494;-66
2022/09/19 01:58:28;;;;;;;;;1.00;1.00;;;;;16.81;48.09;101692.47;4927657;28;45525;-69
2022/09/19 02:01:03;;;;;;;;;2.00;2.00;;;;;16.73;48.32;101676.63;4933413;28;46656;-66
2022/09/19 02:03:36;;;;;;;;;1.00;1.00;;;;;16.82;48.32;101697.72;4932802;28;45422;-66
2022/09/19 02:06:08;;;;;;;;;2.00;2.00;;;;;16.82;48.54;101696.84;4945146;28;45345;-67
2022/09/19 02:08:59;;;;;;;;;2.00;2.00;;;;;16.77;48.43;101686.28;4934038;28;45602;-67
2022/09/19 02:11:27;;;;;;;;;4.00;1.33;;;;;16.80;48.68;101691.59;4937097;28;45478;-68
2022/09/19 02:14:01;;;;;;;;;2.00;2.00;;;;;16.71;48.56;101684.56;4936797;28;45439;-67
2022/09/19 02:16:36;;;;;;;;;2.00;2.00;;;;;16.77;48.76;101704.78;4935529;28;45573;-68
2022/09/19 02:19:12;;;;;;;;;1.00;1.00;;;;;16.72;48.68;101688.09;4932355;28;45416;-68
2022/09/19 02:21:53;;;;;;;;;2.00;2.00;;;;;16.77;48.48;101712.72;4932585;28;45598;-68
2022/09/19 02:24:27;;;;;;;;;2.00;1.33;;;;;16.67;48.78;101693.41;4935307;28;45446;-68
2022/09/19 02:26:57;;;;;;;;;2.67;2.67;;;;;16.75;48.75;101711.84;4933075;28;45412;-65
2022/09/19 02:29:30;;;;;;;;;1.67;1.67;;;;;16.75;48.58;101710.13;4932576;28;45387;-70
2022/09/19 02:31:56;;;;;;;;;1.00;1.00;;;;;16.66;48.56;101706.66;4932840;28;46637;-66
2022/09/19 02:34:22;;;;;;;;;3.00;0.00;;;;;16.72;48.69;101714.53;4930983;28;46208;-73
2022/09/19 02:37:01;;;;;;;;;1.00;1.00;;;;;16.76;48.89;101713.63;4932740;28;45391;-69
2022/09/19 02:39:28;;;;;;;;;2.67;2.00;;;;;16.70;49.07;101711.03;4931198;28;45407;-67
2022/09/19 02:42:10;;;;;;;;;1.67;1.67;;;;;16.74;49.02;101715.41;4932291;28;45776;-68
2022/09/19 02:45:03;;;;;;;;;2.00;1.00;;;;;16.71;48.66;101710.16;4932066;28;45528;-67
2022/09/19 02:47:40;;;;;;;;;3.67;2.67;;;;;16.69;49.04;101699.56;4949327;28;45506;-68
2022/09/19 02:50:35;;;;;;;;;2.00;1.33;;;;;16.58;49.97;101706.69;4917972;28;45860;-65
2022/09/19 02:53:05;;;;;;;;;2.00;2.00;;;;;16.48;49.81;101720.88;4926398;28;46677;-66
2022/09/19 02:55:41;;;;;;;;;2.33;1.00;;;;;16.42;50.37;101715.63;4936171;28;45628;-66
2022/09/19 02:58:09;;;;;;;;;1.00;1.00;;;;;16.47;49.96;101721.78;4934651;28;45414;-64
2022/09/19 03:00:38;;;;;;;;;2.33;1.00;;;;;16.47;49.75;101711.22;4932268;28;45467;-64
2022/09/19 03:06:26;;;;;;;;;1.00;1.00;;;;;16.54;49.69;101712.94;4932053;28;45710;-66
2022/09/19 03:08:54;;;;;;;;;2.00;2.00;;;;;16.53;49.49;101712.03;4932026;28;45566;-67
2022/09/19 03:11:22;;;;;;;;;1.00;1.00;;;;;16.53;49.41;101704.09;4932306;28;45419;-65
2022/09/19 03:13:47;;;;;;;;;1.00;1.00;;;;;16.57;49.58;101712.91;4930674;28;45525;-65
2022/09/19 03:16:24;;;;;;;;;1.00;1.00;;;;;16.52;49.29;101704.13;4914858;28;45725;-66
2022/09/19 03:18:55;;;;;;;;;2.00;2.00;;;;;16.57;49.23;101707.59;4934738;28;45455;-65
2022/09/19 03:21:23;;;;;;;;;3.00;2.00;;;;;16.52;49.55;101707.63;4934152;28;45545;-66
2022/09/19 03:23:58;;;;;;;;;3.00;2.00;;;;;16.59;49.74;101713.75;4931155;28;46253;-66
2022/09/19 03:26:30;;;;;;;;;1.00;1.00;;;;;16.40;50.09;101704.22;4932068;28;45548;-66
2022/09/19 03:28:57;;;;;;;;;1.33;1.33;;;;;16.36;49.64;101716.56;4935062;28;45549;-68
2022/09/19 03:31:23;;;;;;;;;1.33;1.33;;;;;16.27;50.87;101716.59;4986299;28;45846;-64
2022/09/19 03:33:51;;;;;;;;;4.00;1.00;;;;;16.14;51.08;101709.66;4921797;28;45590;-67
2022/09/19 03:36:18;;;;;;;;;2.00;2.00;;;;;16.20;50.63;101714.88;4931723;28;46100;-68
2022/09/19 03:38:46;;;;;;;;;1.00;1.00;;;;;16.23;50.96;101720.16;4930092;28;45518;-66
2022/09/19 03:41:13;;;;;;;;;1.00;1.00;;;;;16.23;50.73;101715.75;4931340;28;45573;-65
2022/09/19 03:43:42;;;;;;;;;1.00;1.00;;;;;16.23;50.82;101717.50;4931240;28;46182;-66
2022/09/19 03:46:11;;;;;;;;;1.33;1.33;;;;;16.28;50.47;101715.75;4932889;28;45457;-64
2022/09/19 03:48:38;;;;;;;;;2.00;2.00;;;;;16.27;50.24;101714.84;4918484;28;45441;-67
2022/09/19 03:51:05;;;;;;;;;2.67;1.00;;;;;16.28;50.47;101715.75;4938612;28;45589;-66
2022/09/19 03:53:30;;;;;;;;;2.67;2.67;;;;;16.20;50.54;101706.97;4937279;28;46816;-65
2022/09/19 03:55:57;;;;;;;;;1.00;1.00;;;;;16.23;51.41;101722.78;4938678;28;45269;-65
2022/09/19 03:58:23;;;;;;;;;3.00;2.00;;;;;15.99;51.41;101710.59;4987133;28;45482;-65
2022/09/19 04:00:50;;;;;;;;;1.00;1.00;;;;;16.00;51.65;101730.88;4936944;28;45482;-64
2022/09/19 04:03:17;;;;;;;;;2.33;1.00;;;;;15.86;52.07;101709.78;4933636;28;46365;-67
2022/09/19 04:05:43;;;;;;;;;1.00;1.00;;;;;15.98;51.40;101732.63;4934335;28;45460;-65
2022/09/19 04:08:08;;;;;;;;;1.00;1.00;;;;;15.99;51.80;101730.00;4934498;28;45441;-66
2022/09/19 04:10:34;;;;;;;;;2.00;1.00;;;;;16.07;51.08;101733.47;4934929;28;45469;-65
2022/09/19 04:13:00;;;;;;;;;1.00;1.00;;;;;16.03;51.10;101722.91;4920481;28;46236;-65
2022/09/19 04:15:25;;;;;;;;;1.00;1.00;;;;;16.13;50.81;101739.59;4936055;28;45684;-66
2022/09/19 04:17:51;;;;;;;;;1.00;1.00;;;;;16.14;51.44;101742.25;4934999;28;45593;-66
2022/09/19 04:20:17;;;;;;;;;1.00;1.00;;;;;16.10;51.13;101744.00;4934599;28;45395;-66
2022/09/19 04:22:43;;;;;;;;;2.00;2.00;;;;;15.99;51.56;101730.00;4934194;28;45347;-66
2022/09/19 04:25:14;;;;;;;;;1.33;1.33;;;;;15.96;51.54;101723.81;4938129;28;45490;-64
2022/09/19 04:27:45;;;;;;;;;1.67;1.67;;;;;15.99;51.90;101731.72;4935148;28;45395;-65
2022/09/19 04:30:13;;;;;;;;;1.00;1.00;;;;;15.93;52.28;101731.78;4932800;28;45611;-65
2022/09/19 04:32:39;;;;;;;;;1.33;1.33;;;;;15.85;51.66;101718.56;4916827;28;45484;-65
2022/09/19 04:35:06;;;;;;;;;1.33;1.33;;;;;15.92;52.03;101722.94;4934139;28;45462;-68
2022/09/19 04:37:31;;;;;;;;;1.67;1.67;;;;;15.92;51.91;101746.72;4917276;28;45475;-65
2022/09/19 04:39:57;;;;;;;;;1.67;1.67;;;;;15.79;52.64;101724.78;4933975;28;45414;-66
2022/09/19 04:42:22;;;;;;;;;1.33;1.00;;;;;15.80;52.86;101746.78;4935277;28;45538;-64
2022/09/19 04:44:48;;;;;;;;;2.67;1.67;;;;;15.82;52.31;101737.09;4917442;28;45808;-67
2022/09/19 04:47:14;;;;;;;;;1.67;1.67;;;;;15.79;52.74;101737.09;4933554;28;45701;-65
2022/09/19 04:49:39;;;;;;;;;2.00;2.00;;;;;15.81;52.37;101754.69;4933686;28;45501;-64
2022/09/19 04:52:13;;;;;;;;;2.67;2.67;;;;;15.72;52.18;101736.25;4933893;28;45482;-63
2022/09/19 04:54:39;;;;;;;;;2.00;2.00;;;;;15.78;52.81;101744.16;4933843;28;45781;-65
2022/09/19 04:57:06;;;;;;;;;2.00;2.00;;;;;15.62;53.13;101745.06;4933698;28;45647;-65
2022/09/19 04:59:33;;;;;;;;;2.00;2.00;;;;;15.64;52.81;101746.81;4932678;28;45316;-64
2022/09/19 05:01:59;;;;;;;;;4.00;2.00;;;;;15.61;53.36;101740.63;4933130;28;45563;-65
2022/09/19 05:04:25;;;;;;;;;1.33;1.33;;;;;15.65;52.91;101748.53;4931886;28;45479;-65
2022/09/19 05:06:54;;;;;;;;;3.00;3.00;;;;;15.66;53.02;101752.06;4934154;28;45494;-67
2022/09/19 05:09:22;;;;;;;;;2.33;2.33;;;;;15.55;53.39;101738.91;4944029;28;45439;-65
2022/09/19 05:11:49;;;;;;;;;2.67;2.00;;;;;15.61;53.21;101753.84;4940215;28;45555;-65
2022/09/19 05:14:15;;;;;;;;;3.33;3.00;;;;;15.57;53.14;101755.63;4932954;28;45982;-64
2022/09/19 05:16:41;;;;;;;;;3.00;3.00;;;;;15.56;53.64;101760.91;4927613;28;45423;-64
2022/09/19 05:19:08;;;;;;;;;2.00;2.00;;;;;15.49;53.78;101760.03;4920052;28;45429;-65
2022/09/19 05:21:36;;;;;;;;;3.00;3.00;;;;;15.52;53.70;101757.41;4936312;28;45481;-66
2022/09/19 05:24:02;;;;;;;;;2.67;2.67;;;;;15.35;54.18;101761.81;4933034;28;45426;-67
2022/09/19 05:26:28;;;;;;;;;3.00;3.00;;;;;15.43;53.92;101767.97;4961238;28;45892;-68
2022/09/19 05:28:54;;;;;;;;;4.00;3.33;;;;;15.42;54.25;101768.84;4928633;28;44874;-68
2022/09/19 05:31:20;;;;;;;;;6.67;3.33;;;;;15.38;53.77;101753.91;4996188;28;46134;-66
2022/09/19 05:33:46;;;;;;;;;4.00;3.00;;;;;15.41;54.28;101761.81;5022204;28;45293;-66
2022/09/19 05:36:13;;;;;;;;;4.00;4.00;;;;;15.34;53.75;101754.78;5013335;28;45413;-67
2022/09/19 05:38:39;;;;;;;;;5.33;4.00;;;;;15.39;54.30;101763.56;5017557;28;45597;-69
2022/09/19 05:41:05;;;;;;;;;4.33;3.67;;;;;15.50;54.11;101779.41;5020078;28;46132;-68
2022/09/19 05:43:32;;;;;;;;;4.33;4.00;;;;;15.35;54.71;101775.00;5003153;28;45678;-67
2022/09/19 05:45:59;;;;;;;;;4.00;4.00;;;;;15.38;54.33;101777.66;4972806;28;45787;-70
2022/09/19 05:48:25;;;;;;;;;7.33;4.00;;;;;15.38;54.71;101783.81;4933766;28;45579;-66
2022/09/19 05:50:52;;;;;;;;;5.67;3.33;;;;;15.33;55.11;101785.59;4946847;28;46154;-65
2022/09/19 05:56:08;;;;;;;;;3.00;3.00;;;;;15.36;54.42;101761.81;4945352;28;45504;-68
2022/09/19 05:58:35;;;;;;;;;5.00;5.00;;;;;15.48;54.33;101785.56;4918338;28;45298;-69
2022/09/19 06:01:09;;;;;;;;;4.00;4.00;;;;;15.61;54.55;101782.88;4927965;28;45679;-68
2022/09/19 06:03:36;;;;;;;;;5.00;4.00;;;;;15.68;53.95;101779.34;4979987;28;45277;-68
2022/09/19 06:06:11;;;;;;;;;5.67;4.00;;;;;15.67;53.95;101767.91;4947048;28;45750;-67
2022/09/19 06:08:38;;;;;;;;;5.00;4.00;;;;;15.90;53.53;101785.50;4937274;28;46620;-67
2022/09/19 06:11:04;;;;;;;;;3.00;3.00;;;;;16.03;53.13;101789.84;4956227;28;46445;-66
2022/09/19 06:14:13;;;;;;;;;4.00;4.00;;;;;16.02;53.52;101788.09;4942462;28;45475;-70
2022/09/19 06:16:17;;;;;;;;;6.00;4.00;;;;;16.01;53.21;101790.72;4967186;28;45826;-67
2022/09/19 06:18:43;;;;;;;;;6.67;3.33;;;;;16.01;53.24;101802.19;5010037;28;45370;-71
2022/09/19 06:21:09;;;;;;;;;5.67;5.67;;;;;15.94;53.38;101802.22;4917457;28;45644;-68
2022/09/19 06:23:35;;;;;;;;;4.00;4.00;;;;;15.98;53.87;101806.59;4935801;28;45647;-67
2022/09/19 06:26:01;;;;;;;;;3.00;3.00;;;;;16.03;53.67;101804.81;4932486;28;45666;-68
2022/09/19 06:28:26;;;;;;;;;4.67;3.00;;;;;16.23;52.83;101808.28;4932455;28;45559;-65
2022/09/19 06:30:53;;;;;;;;;4.33;4.33;;;;;16.21;52.86;101798.59;4931966;28;45320;-67
2022/09/19 06:33:18;;;;;;;;;3.00;3.00;;;;;16.42;52.39;101817.00;4924466;28;45458;-65
2022/09/19 06:35:44;;;;;;;;;3.00;3.00;;;;;16.56;52.01;101816.03;4935407;28;45265;-67
2022/09/19 06:38:09;;;;;;;;;3.33;3.33;;;;;16.69;51.14;101817.72;4991748;28;45494;-68
2022/09/19 06:40:37;;;;;;;;;5.00;4.33;;;;;16.84;50.80;101822.94;4935395;28;46299;-66
2022/09/19 06:43:05;;;;;;;;;3.00;3.00;;;;;16.90;50.84;101812.34;4931512;28;46124;-66
2022/09/19 06:45:37;;;;;;;;;2.00;2.00;;;;;17.07;50.39;101825.44;4934054;28;45459;-66
2022/09/19 06:48:04;;;;;;;;;4.00;3.00;;;;;17.18;50.25;101825.38;4935885;28;45529;-66
2022/09/19 06:50:31;;;;;;;;;3.33;3.33;;;;;17.28;49.88;101834.13;4914996;28;45862;-66
2022/09/19 06:52:56;;;;;;;;;5.67;4.00;;;;;17.13;49.68;101798.03;4962829;28;45458;-67
2022/09/19 06:55:25;;;;;;;;;3.33;3.33;;;;;17.38;49.54;101835.78;4932856;28;45801;-66
2022/09/19 06:57:58;;;;;;;;;4.33;4.33;;;;;17.35;49.76;101826.09;4958284;28;45514;-66
2022/09/19 07:00:26;;;;;;;;;3.00;3.00;;;;;17.61;49.25;101840.88;4918371;28;47864;-66
2022/09/19 07:02:58;;;;;;;;;7.67;5.00;;;;;17.56;49.03;101848.00;4932441;28;45300;-66
2022/09/19 07:05:24;;;;;;;;;3.00;3.00;;;;;17.53;49.06;101829.47;4932266;28;45862;-66
2022/09/19 07:07:51;;;;;;;;;8.00;5.33;;;;;17.62;48.71;101837.31;4935118;28;45325;-67
2022/09/19 07:10:19;;;;;;;;;4.67;4.33;;;;;17.74;48.93;101847.78;4931801;28;46152;-67
2022/09/19 07:13:01;;;;;;;;;3.00;3.00;;;;;17.91;48.48;101854.72;4914354;28;45485;-66
2022/09/19 07:15:27;;;;;;;;;4.00;4.00;;;;;18.00;48.21;101857.28;4931802;28;45406;-66
2022/09/19 07:17:55;;;;;;;;;4.00;4.00;;;;;18.02;48.20;101855.50;4931957;28;45396;-67
2022/09/19 07:20:22;;;;;;;;;6.00;4.33;;;;;18.15;47.94;101862.44;4936773;28;46960;-67
2022/09/19 07:23:00;;;;;;;;;5.33;5.33;;;;;18.12;47.93;101835.94;5010442;28;45399;-67
2022/09/19 07:25:27;;;;;;;;;5.67;5.00;;;;;18.26;47.53;101861.41;4942191;28;45361;-70
2022/09/19 07:28:01;;;;;;;;;4.67;4.67;;;;;18.34;47.54;101863.09;4945054;28;45498;-67
2022/09/19 07:30:28;;;;;;;;;4.67;4.67;;;;;18.37;47.39;101867.47;4929124;28;46673;-66
2022/09/19 07:33:10;;;;;;;;;5.00;5.00;;;;;18.39;47.10;101861.25;4947427;28;46286;-66
2022/09/19 07:35:39;;;;;;;;;7.67;4.33;;;;;18.50;47.19;101871.72;4941166;28;45826;-65
2022/09/19 07:38:06;;;;;;;;;5.00;5.00;;;;;18.49;47.14;101862.00;4938141;28;45374;-65
2022/09/19 07:40:34;;;;;;;;;4.00;4.00;;;;;18.51;47.13;101864.63;4933760;28;45393;-65
2022/09/19 07:43:04;;;;;;;;;5.00;4.00;;;;;18.58;46.93;101869.84;4964977;28;45342;-65
2022/09/19 07:45:32;;;;;;;;;6.67;5.00;;;;;18.52;47.07;101861.09;4935592;28;45657;-65
2022/09/19 07:47:58;;;;;;;;;5.00;5.00;;;;;18.65;46.77;101874.19;4915659;28;45451;-66
2022/09/19 07:50:23;;;;;;;;;4.67;3.00;;;;;18.59;46.85;101870.72;4970478;28;46096;-65
2022/09/19 07:53:01;;;;;;;;;7.00;6.00;;;;;18.68;46.70;101878.56;4933283;28;45575;-65
2022/09/19 07:55:27;;;;;;;;;5.00;4.33;;;;;18.79;47.18;101881.09;4954013;28;45407;-64
2022/09/19 07:57:55;;;;;;;;;3.00;3.00;;;;;18.91;47.15;101874.72;4920741;28;46608;-68
2022/09/19 08:00:23;;;;;;;;;3.67;3.67;;;;;18.94;46.25;101869.41;4943219;28;45766;-66
2022/09/19 08:03:01;;;;;;;;;5.00;2.67;;;;;19.15;46.45;101887.66;4924054;28;46024;-65
2022/09/19 08:05:39;;;;;;;;;2.00;2.00;;;;;19.24;45.92;101886.63;4941985;28;45581;-64
2022/09/19 08:08:10;;;;;;;;;5.33;4.00;;;;;19.30;45.62;101894.50;4929202;28;45852;-65
2022/09/19 08:10:44;;;;;;;;;3.00;3.00;;;;;19.41;45.84;101897.88;4932170;28;46511;-65
2022/09/19 08:13:14;;;;;;;;;3.00;2.33;;;;;19.45;44.71;101899.53;4935735;28;45543;-64
2022/09/19 08:15:51;;;;;;;;;4.00;4.00;;;;;19.37;45.41;101896.16;4936758;28;45418;-64
2022/09/19 08:18:23;;;;;;;;;4.33;2.33;;;;;19.46;45.47;101885.38;4925149;28;45609;-64
2022/09/19 08:20:51;;;;;;;;;3.00;3.00;;;;;19.56;45.34;101902.03;4928915;28;46163;-65
2022/09/19 08:23:20;;;;;;;;;3.00;3.00;;;;;19.60;45.27;101897.53;4916400;28;45519;-65
2022/09/19 08:25:47;;;;;;;;;3.00;3.00;;;;;19.70;44.72;101900.06;4927357;28;45777;-65
2022/09/19 08:28:20;;;;;;;;;3.00;3.00;;;;;19.77;44.42;101908.81;4917400;28;45839;-64
2022/09/19 08:30:47;;;;;;;;;3.00;2.00;;;;;19.54;43.47;101890.56;4918516;28;45924;-66
2022/09/19 08:33:14;;;;;;;;;3.00;2.00;;;;;19.72;44.07;101909.78;4912383;28;45477;-68
2022/09/19 08:35:41;;;;;;;;;4.67;3.00;;;;;19.74;43.59;101906.19;4976478;28;45462;-66
2022/09/19 08:38:15;;;;;;;;;3.00;2.00;;;;;19.87;44.04;101914.84;4912781;28;45356;-66
2022/09/19 08:40:59;;;;;;;;;3.67;2.00;;;;;19.94;43.67;101918.25;4929563;28;45513;-66
2022/09/19 08:43:44;;;;;;;;;2.67;2.00;;;;;20.01;43.47;101914.59;4928785;28;45962;-66
2022/09/19 08:46:33;;;;;;;;;2.00;2.00;;;;;20.16;43.17;101908.09;4923141;28;46162;-66
2022/09/19 08:49:27;;;;;;;;;3.00;2.00;;;;;20.41;42.49;101905.84;4928203;28;45652;-68
2022/09/19 08:52:23;;;;;;;;;1.33;1.33;;;;;20.50;42.14;101908.28;4932245;28;46331;-66
2022/09/19 08:54:54;;;;;;;;;3.00;1.00;;;;;20.53;40.43;101906.44;4925330;28;45400;-68
2022/09/19 08:57:43;;;;;;;;;1.00;1.00;;;;;20.54;40.84;101910.84;4916447;28;45521;-66
2022/09/19 09:00:19;;;;;;;;;3.00;1.00;;;;;20.69;40.88;101912.38;4938612;28;45496;-66
2022/09/19 09:02:50;;;;;;;;;0.00;0.00;;;;;20.85;40.65;101918.22;4935868;28;45449;-68
2022/09/19 09:05:29;;;;;;;;;1.00;1.00;;;;;20.74;39.88;101913.13;4933588;28;45772;-66
2022/09/19 09:08:19;;;;;;;;;1.00;1.00;;;;;20.91;40.61;101910.09;4933689;28;45447;-66
2022/09/19 09:11:12;;;;;;;;;2.33;1.00;;;;;21.13;40.31;101910.47;4934766;28;45523;-67
2022/09/19 09:13:57;;;;;;;;;0.00;0.00;;;;;21.00;40.49;101908.13;4937314;28;46208;-66
2022/09/19 09:16:44;;;;;;;;;0.67;0.67;;;;;21.09;39.53;101911.44;4933427;28;45414;-69
2022/09/19 09:19:31;;;;;;;;;1.00;1.00;;;;;21.15;39.70;101913.13;4932029;28;45276;-69
2022/09/19 09:22:21;;;;;;;;;1.00;1.00;;;;;21.10;39.67;101915.88;4934314;28;45764;-67
2022/09/19 09:25:00;;;;;;;;;1.00;1.00;;;;;20.99;39.86;101915.25;4938775;28;47890;-66
2022/09/19 09:27:33;;;;;;;;;1.00;1.00;;;;;20.87;40.15;101926.19;4927131;28;45403;-65
2022/09/19 09:30:12;;;;;;;;;1.00;1.00;;;;;20.51;39.24;101918.91;4933227;28;45405;-66
2022/09/19 09:32:44;;;;;;;;;4.00;1.00;;;;;20.22;39.38;101922.16;4936420;28;45465;-66
2022/09/19 09:35:18;;;;;;;;;0.67;0.67;;;;;19.99;40.32;101930.56;4936191;28;45420;-66
2022/09/19 09:38:02;;;;;;;;;0.67;0.00;;;;;19.97;39.63;101927.03;4973463;28;45667;-68
2022/09/19 09:44:07;;;;;;;;;1.00;1.00;;;;;19.97;39.75;101931.50;4937962;28;45399;-66
2022/09/19 09:47:15;;;;;;;;;1.00;1.00;;;;;20.02;40.13;101929.63;4936678;28;45642;-67
2022/09/19 09:49:43;;;;;;;;;0.33;0.33;;;;;19.73;39.10;101877.84;4944252;28;45463;-67
2022/09/19 09:52:18;;;;;;;;;0.67;0.67;;;;;19.99;39.74;101919.06;4929588;28;45553;-71
2022/09/19 09:58:27;;;;;;;;;1.00;0.33;;;;;20.05;39.23;101914.50;4946768;28;45815;-66
2022/09/19 10:04:13;;;;;;;;;1.00;1.00;;;;;20.18;38.89;101924.91;4943701;28;45457;-68
2022/09/19 10:06:56;;;;;;;;;1.00;0.33;;;;;20.46;38.54;101914.59;4939110;28;45315;-69
2022/09/19 10:09:34;;;;;;;;;0.00;0.00;;;;;20.78;37.96;101911.28;4942618;28;45398;-67
2022/09/19 10:12:36;;;;;;;;;1.00;0.00;;;;;21.14;38.10;101914.91;4930995;28;45516;-65
2022/09/19 10:15:12;;;;;;;;;0.00;0.00;;;;;21.40;37.56;101918.75;4935907;28;45526;-64
2022/09/19 10:17:42;;;;;;;;;0.00;0.00;;;;;21.60;38.03;101911.16;4949939;28;45474;-65
2022/09/19 10:20:22;;;;;;;;;3.00;1.00;;;;;21.50;35.28;101906.09;4945381;28;45526;-64
2022/09/19 10:22:49;;;;;;;;;2.00;0.67;;;;;21.18;35.57;101891.72;4936113;28;45306;-66
2022/09/19 10:25:16;;;;;;;;;1.00;0.00;;;;;21.08;36.18;101909.72;4931757;28;45526;-64
2022/09/19 10:27:42;;;;;;;;;1.00;1.00;;;;;21.23;36.38;101900.47;4932114;28;45601;-65
2022/09/19 10:30:27;;;;;;;;;2.00;1.00;;;;;21.36;35.06;101890.41;4934440;28;47045;-65
2022/09/19 10:32:54;;;;;;;;;1.00;1.00;;;;;21.34;34.54;101889.56;4929362;28;45562;-65
2022/09/19 10:35:27;;;;;;;;;1.00;1.00;;;;;21.22;34.69;101900.53;4935822;28;45744;-65
2022/09/19 10:37:59;;;;;;;;;1.00;0.67;;;;;21.37;36.12;101906.34;4936422;28;45333;-66
2022/09/19 10:40:25;;;;;;;;;3.00;0.00;;;;;21.50;34.59;101898.97;4940273;28;46401;-65
2022/09/19 10:42:54;;;;;;;;;1.00;0.00;;;;;21.80;34.69;101899.94;4926795;28;45500;-64
2022/09/19 10:45:26;;;;;;;;;0.00;0.00;;;;;22.22;34.64;101898.88;4932165;28;45613;-65
2022/09/19 10:47:56;;;;;;;;;0.00;0.00;;;;;22.68;33.75;101896.66;4935386;28;45427;-65
2022/09/19 10:50:23;;;;;;;;;1.67;0.00;;;;;23.04;33.13;101894.66;4927367;28;46091;-65
2022/09/19 10:52:51;;;;;;;;;0.00;0.00;;;;;23.50;32.54;101898.53;4960063;28;45408;-66
2022/09/19 10:55:21;;;;;;;;;1.00;0.00;;;;;23.82;32.41;101883.19;4931880;28;45565;-68
2022/09/19 10:58:03;;;;;;;;;0.00;0.00;;;;;24.39;31.35;101902.53;4930265;28;45529;-66
2022/09/19 11:00:51;;;;;;;;;0.67;0.67;;;;;24.76;30.36;101897.56;4920359;28;45509;-66
2022/09/19 11:03:35;;;;;;;;;1.00;1.00;;;;;24.86;29.94;101876.63;4934600;28;45483;-66
2022/09/19 11:06:16;;;;;;;;;2.00;1.00;;;;;25.12;29.53;101888.13;4961244;28;45635;-67
2022/09/19 11:08:45;;;;;;;;;1.00;0.00;;;;;25.20;28.78;101875.31;4921959;28;45775;-68
2022/09/19 11:11:27;;;;;;;;;2.00;0.67;;;;;25.63;28.76;101876.19;4916537;28;47180;-66
2022/09/19 11:14:31;;;;;;;;;0.00;0.00;;;;;27.45;26.42;101882.06;4921807;28;45451;-66
2022/09/19 11:17:31;;;;;;;;;0.00;0.00;;;;;30.48;23.09;101876.53;4916846;28;45387;-66
2022/09/19 11:20:21;;;;;;;;;2.00;1.25;;;;;32.33;20.86;101865.78;4938925;28;45478;-67
2022/09/19 11:23:10;;;;;;;;;0.00;0.00;;;;;33.27;19.11;101867.03;4920826;28;45789;-65
2022/09/19 11:25:55;;;;;;;;;0.80;0.60;;;;;34.16;18.74;101854.66;4938005;28;45566;-66
2022/09/19 11:28:48;;;;;;;;;2.00;1.00;;;;;34.40;18.77;101861.81;4934486;28;45414;-65
2022/09/19 11:31:20;;;;;;;;;2.00;1.25;;;;;35.10;17.91;101862.44;4917193;28;45511;-66
2022/09/19 11:34:16;;;;;;;;;1.00;1.00;;;;;35.77;17.70;101873.03;4933560;28;46036;-66
2022/09/19 11:37:05;;;;;;;;;2.60;2.60;;;;;36.59;16.47;101863.97;4938450;28;45838;-65
2022/09/19 11:40:02;;;;;;;;;1.20;1.20;;;;;36.70;16.07;101868.44;4953833;28;45906;-64
2022/09/19 11:42:41;;;;;;;;;1.00;1.00;;;;;36.61;16.65;101863.81;4926264;28;45509;-65
2022/09/19 11:45:17;;;;;;;;;0.00;0.00;;;;;37.32;15.42;101850.81;4938513;28;45467;-65
2022/09/19 11:48:13;;;;;;;;;0.80;0.80;;;;;37.34;14.74;101861.59;4921840;28;45498;-68
2022/09/19 11:51:16;;;;;;;;;2.40;1.00;;;;;37.88;14.63;101856.50;4934118;28;45821;-67
2022/09/19 11:54:02;;;;;;;;;1.40;0.00;;;;;37.92;14.00;101853.31;4942096;28;45504;-66
2022/09/19 11:56:37;;;;;;;;;0.20;0.20;;;;;37.14;14.45;101844.38;4909705;28;46890;-66
2022/09/19 11:59:31;;;;;;;;;0.00;0.00;;;;;37.58;14.38;101846.66;4937338;28;45485;-67
2022/09/19 12:02:31;;;;;;;;;0.00;0.00;;;;;38.32;14.68;101843.94;4931233;28;45480;-68
2022/09/19 12:05:17;;;;;;;;;0.00;0.00;;;;;38.42;14.45;101841.16;4920060;28;45413;-67
2022/09/19 12:08:13;;;;;;;;;0.00;0.00;;;;;36.62;15.21;101836.41;4921337;28;45836;-68
2022/09/19 12:10:51;;;;;;;;;0.00;0.00;;;;;33.60;18.18;101845.53;4922782;28;45494;-65
2022/09/19 12:13:42;;;;;;;;;0.00;0.00;;;;;31.63;19.36;101836.44;4933818;28;45445;-67